sensor_id;sensor_type;location;lat;lon;timestamp;temperature;humidity
40622;DHT22;26324;52.040;11.528;2022-10-13T00:00:48;8.70;77.80
40622;DHT22;26324;52.040;11.528;2022-10-13T00:03:15;8.60;77.90
40622;DHT22;26324;52.040;11.528;2022-10-13T00:05:44;8.60;77.60
40622;DHT22;26324;52.040;11.528;2022-10-13T00:08:11;8.60;77.40
40622;DHT22;26324;52.040;11.528;2022-10-13T00:10:38;8.50;78.00
40622;DHT22;26324;52.040;11.528;2022-10-13T00:13:04;8.50;78.30
40622;DHT22;26324;52.040;11.528;2022-10-13T00:15:30;8.70;78.30
40622;DHT22;26324;52.040;11.528;2022-10-13T00:17:55;8.60;78.30
40622;DHT22;26324;52.040;11.528;2022-10-13T00:20:21;8.60;78.10
40622;DHT22;26324;52.040;11.528;2022-10-13T00:22:46;8.40;78.00
40622;DHT22;26324;52.040;11.528;2022-10-13T00:25:12;8.30;78.40
40622;DHT22;26324;52.040;11.528;2022-10-13T00:27:38;8.20;78.70
40622;DHT22;26324;52.040;11.528;2022-10-13T00:30:03;8.10;79.10
40622;DHT22;26324;52.040;11.528;2022-10-13T00:32:29;8.20;79.00
40622;DHT22;26324;52.040;11.528;2022-10-13T00:34:55;8.20;79.30
40622;DHT22;26324;52.040;11.528;2022-10-13T00:37:22;8.10;79.70
40622;DHT22;26324;52.040;11.528;2022-10-13T00:39:47;8.10;79.90
40622;DHT22;26324;52.040;11.528;2022-10-13T00:42:13;8.10;80.60
40622;DHT22;26324;52.040;11.528;2022-10-13T00:45:05;8.20;80.60
40622;DHT22;26324;52.040;11.528;2022-10-13T00:47:39;8.30;80.40
40622;DHT22;26324;52.040;11.528;2022-10-13T00:50:11;8.30;80.30
40622;DHT22;26324;52.040;11.528;2022-10-13T00:52:39;8.30;79.50
40622;DHT22;26324;52.040;11.528;2022-10-13T00:55:07;8.30;79.20
40622;DHT22;26324;52.040;11.528;2022-10-13T00:57:33;8.30;79.50
40622;DHT22;26324;52.040;11.528;2022-10-13T01:00:00;8.30;79.90
40622;DHT22;26324;52.040;11.528;2022-10-13T01:02:31;8.30;80.00
40622;DHT22;26324;52.040;11.528;2022-10-13T01:04:59;8.40;79.90
40622;DHT22;26324;52.040;11.528;2022-10-13T01:07:25;8.40;80.10
40622;DHT22;26324;52.040;11.528;2022-10-13T01:09:51;8.30;79.90
40622;DHT22;26324;52.040;11.528;2022-10-13T01:12:35;8.20;80.30
40622;DHT22;26324;52.040;11.528;2022-10-13T01:15:19;8.10;81.00
40622;DHT22;26324;52.040;11.528;2022-10-13T01:18:28;8.10;81.30
40622;DHT22;26324;52.040;11.528;2022-10-13T01:21:14;8.30;80.70
40622;DHT22;26324;52.040;11.528;2022-10-13T01:37:47;8.20;82.50
40622;DHT22;26324;52.040;11.528;2022-10-13T01:40:28;8.30;82.40
40622;DHT22;26324;52.040;11.528;2022-10-13T01:43:01;8.30;82.10
40622;DHT22;26324;52.040;11.528;2022-10-13T01:45:34;8.40;82.20
40622;DHT22;26324;52.040;11.528;2022-10-13T01:48:01;8.20;82.50
40622;DHT22;26324;52.040;11.528;2022-10-13T01:50:28;8.20;82.70
40622;DHT22;26324;52.040;11.528;2022-10-13T01:52:58;8.20;82.90
40622;DHT22;26324;52.040;11.528;2022-10-13T01:55:25;8.20;83.00
40622;DHT22;26324;52.040;11.528;2022-10-13T01:57:50;8.20;82.90
40622;DHT22;26324;52.040;11.528;2022-10-13T02:00:18;8.30;82.80
40622;DHT22;26324;52.040;11.528;2022-10-13T02:06:04;8.30;82.00
40622;DHT22;26324;52.040;11.528;2022-10-13T02:08:44;8.10;82.70
40622;DHT22;26324;52.040;11.528;2022-10-13T02:11:17;8.00;83.70
40622;DHT22;26324;52.040;11.528;2022-10-13T02:13:57;8.00;84.00
40622;DHT22;26324;52.040;11.528;2022-10-13T02:16:25;8.20;83.90
40622;DHT22;26324;52.040;11.528;2022-10-13T02:18:55;8.40;82.70
40622;DHT22;26324;52.040;11.528;2022-10-13T02:21:21;8.50;81.80
40622;DHT22;26324;52.040;11.528;2022-10-13T02:23:47;8.40;81.50
40622;DHT22;26324;52.040;11.528;2022-10-13T02:26:13;8.60;81.40
40622;DHT22;26324;52.040;11.528;2022-10-13T02:28:39;8.50;81.10
40622;DHT22;26324;52.040;11.528;2022-10-13T02:31:07;8.50;81.30
40622;DHT22;26324;52.040;11.528;2022-10-13T02:33:33;8.50;81.30
40622;DHT22;26324;52.040;11.528;2022-10-13T02:35:58;8.40;81.40
40622;DHT22;26324;52.040;11.528;2022-10-13T02:38:24;8.30;81.80
40622;DHT22;26324;52.040;11.528;2022-10-13T02:40:49;8.20;82.10
40622;DHT22;26324;52.040;11.528;2022-10-13T02:43:15;8.10;83.00
40622;DHT22;26324;52.040;11.528;2022-10-13T02:45:41;8.10;83.10
40622;DHT22;26324;52.040;11.528;2022-10-13T02:48:06;8.10;83.20
40622;DHT22;26324;52.040;11.528;2022-10-13T02:50:32;8.10;83.20
40622;DHT22;26324;52.040;11.528;2022-10-13T02:52:58;8.30;83.40
40622;DHT22;26324;52.040;11.528;2022-10-13T02:55:23;8.20;83.40
40622;DHT22;26324;52.040;11.528;2022-10-13T02:57:49;8.40;83.10
40622;DHT22;26324;52.040;11.528;2022-10-13T03:00:15;8.50;83.00
40622;DHT22;26324;52.040;11.528;2022-10-13T03:02:41;8.50;82.50
40622;DHT22;26324;52.040;11.528;2022-10-13T03:05:07;8.60;81.70
40622;DHT22;26324;52.040;11.528;2022-10-13T03:07:34;8.40;81.80
40622;DHT22;26324;52.040;11.528;2022-10-13T03:09:59;8.30;82.20
40622;DHT22;26324;52.040;11.528;2022-10-13T03:12:26;8.20;82.20
40622;DHT22;26324;52.040;11.528;2022-10-13T03:14:51;8.20;82.40
40622;DHT22;26324;52.040;11.528;2022-10-13T03:17:17;8.30;82.20
40622;DHT22;26324;52.040;11.528;2022-10-13T03:19:42;8.30;82.10
40622;DHT22;26324;52.040;11.528;2022-10-13T03:22:08;8.10;82.20
40622;DHT22;26324;52.040;11.528;2022-10-13T03:24:33;8.10;82.20
40622;DHT22;26324;52.040;11.528;2022-10-13T03:27:01;8.00;82.50
40622;DHT22;26324;52.040;11.528;2022-10-13T03:29:27;8.00;82.60
40622;DHT22;26324;52.040;11.528;2022-10-13T03:31:53;7.80;82.70
40622;DHT22;26324;52.040;11.528;2022-10-13T03:34:18;7.70;83.10
40622;DHT22;26324;52.040;11.528;2022-10-13T03:36:44;7.70;83.40
40622;DHT22;26324;52.040;11.528;2022-10-13T03:39:10;7.80;83.40
40622;DHT22;26324;52.040;11.528;2022-10-13T03:41:35;7.80;83.50
40622;DHT22;26324;52.040;11.528;2022-10-13T03:44:01;7.80;83.50
40622;DHT22;26324;52.040;11.528;2022-10-13T03:46:28;7.80;83.30
40622;DHT22;26324;52.040;11.528;2022-10-13T03:48:54;7.70;83.20
40622;DHT22;26324;52.040;11.528;2022-10-13T03:51:20;7.70;83.20
40622;DHT22;26324;52.040;11.528;2022-10-13T03:53:47;7.80;83.20
40622;DHT22;26324;52.040;11.528;2022-10-13T03:56:19;7.70;83.00
40622;DHT22;26324;52.040;11.528;2022-10-13T03:58:47;7.70;83.10
40622;DHT22;26324;52.040;11.528;2022-10-13T04:01:18;7.70;82.80
40622;DHT22;26324;52.040;11.528;2022-10-13T04:03:44;7.60;83.00
40622;DHT22;26324;52.040;11.528;2022-10-13T04:06:09;7.60;83.00
40622;DHT22;26324;52.040;11.528;2022-10-13T04:08:35;7.50;83.40
40622;DHT22;26324;52.040;11.528;2022-10-13T04:11:04;7.60;83.50
40622;DHT22;26324;52.040;11.528;2022-10-13T04:13:30;7.60;83.50
40622;DHT22;26324;52.040;11.528;2022-10-13T04:16:03;7.50;83.80
40622;DHT22;26324;52.040;11.528;2022-10-13T04:18:29;7.50;83.70
40622;DHT22;26324;52.040;11.528;2022-10-13T04:20:55;7.60;83.70
40622;DHT22;26324;52.040;11.528;2022-10-13T04:23:20;7.50;83.60
40622;DHT22;26324;52.040;11.528;2022-10-13T04:25:46;7.50;84.10
40622;DHT22;26324;52.040;11.528;2022-10-13T04:28:12;7.50;84.30
40622;DHT22;26324;52.040;11.528;2022-10-13T04:30:39;7.60;83.90
40622;DHT22;26324;52.040;11.528;2022-10-13T04:33:05;7.70;83.40
40622;DHT22;26324;52.040;11.528;2022-10-13T04:35:31;7.60;83.50
40622;DHT22;26324;52.040;11.528;2022-10-13T04:37:57;7.60;83.50
40622;DHT22;26324;52.040;11.528;2022-10-13T04:40:23;7.70;83.50
40622;DHT22;26324;52.040;11.528;2022-10-13T04:42:49;7.80;83.50
40622;DHT22;26324;52.040;11.528;2022-10-13T04:45:15;7.90;83.60
40622;DHT22;26324;52.040;11.528;2022-10-13T04:47:41;7.90;83.50
40622;DHT22;26324;52.040;11.528;2022-10-13T04:50:06;7.80;83.40
40622;DHT22;26324;52.040;11.528;2022-10-13T04:52:34;7.80;83.20
40622;DHT22;26324;52.040;11.528;2022-10-13T04:54:59;8.00;82.40
40622;DHT22;26324;52.040;11.528;2022-10-13T04:57:25;7.80;82.70
40622;DHT22;26324;52.040;11.528;2022-10-13T04:59:50;7.70;83.10
40622;DHT22;26324;52.040;11.528;2022-10-13T05:02:16;7.60;83.30
40622;DHT22;26324;52.040;11.528;2022-10-13T05:04:41;7.60;83.60
40622;DHT22;26324;52.040;11.528;2022-10-13T05:07:07;7.60;83.90
40622;DHT22;26324;52.040;11.528;2022-10-13T05:09:33;7.60;84.00
40622;DHT22;26324;52.040;11.528;2022-10-13T05:11:58;7.60;84.30
40622;DHT22;26324;52.040;11.528;2022-10-13T05:14:24;7.50;84.70
40622;DHT22;26324;52.040;11.528;2022-10-13T05:16:49;7.70;84.70
40622;DHT22;26324;52.040;11.528;2022-10-13T05:19:15;7.70;84.50
40622;DHT22;26324;52.040;11.528;2022-10-13T05:21:41;7.70;84.60
40622;DHT22;26324;52.040;11.528;2022-10-13T05:24:07;7.70;84.70
40622;DHT22;26324;52.040;11.528;2022-10-13T05:26:38;7.90;84.20
40622;DHT22;26324;52.040;11.528;2022-10-13T05:29:04;7.90;83.10
40622;DHT22;26324;52.040;11.528;2022-10-13T05:31:32;7.80;83.20
40622;DHT22;26324;52.040;11.528;2022-10-13T05:33:58;7.90;83.30
40622;DHT22;26324;52.040;11.528;2022-10-13T05:36:27;7.90;83.40
40622;DHT22;26324;52.040;11.528;2022-10-13T05:38:56;7.90;83.50
40622;DHT22;26324;52.040;11.528;2022-10-13T05:41:23;8.00;83.40
40622;DHT22;26324;52.040;11.528;2022-10-13T05:43:52;7.80;83.60
40622;DHT22;26324;52.040;11.528;2022-10-13T05:46:18;7.80;84.10
40622;DHT22;26324;52.040;11.528;2022-10-13T05:48:44;7.80;84.30
40622;DHT22;26324;52.040;11.528;2022-10-13T05:51:19;8.00;84.60
40622;DHT22;26324;52.040;11.528;2022-10-13T05:53:49;8.00;84.40
40622;DHT22;26324;52.040;11.528;2022-10-13T05:56:19;8.00;84.40
40622;DHT22;26324;52.040;11.528;2022-10-13T05:58:50;8.20;84.40
40622;DHT22;26324;52.040;11.528;2022-10-13T06:01:20;8.30;83.80
40622;DHT22;26324;52.040;11.528;2022-10-13T06:03:47;8.30;83.30
40622;DHT22;26324;52.040;11.528;2022-10-13T06:06:14;8.40;83.10
40622;DHT22;26324;52.040;11.528;2022-10-13T06:08:40;8.40;83.00
40622;DHT22;26324;52.040;11.528;2022-10-13T06:11:07;8.30;83.10
40622;DHT22;26324;52.040;11.528;2022-10-13T06:13:33;8.30;83.60
40622;DHT22;26324;52.040;11.528;2022-10-13T06:15:59;8.40;83.80
40622;DHT22;26324;52.040;11.528;2022-10-13T06:18:25;8.50;83.60
40622;DHT22;26324;52.040;11.528;2022-10-13T06:20:51;8.50;83.90
40622;DHT22;26324;52.040;11.528;2022-10-13T06:23:16;8.60;83.90
40622;DHT22;26324;52.040;11.528;2022-10-13T06:25:49;8.60;83.90
40622;DHT22;26324;52.040;11.528;2022-10-13T06:28:16;8.60;84.10
40622;DHT22;26324;52.040;11.528;2022-10-13T06:30:46;8.60;84.00
40622;DHT22;26324;52.040;11.528;2022-10-13T06:33:17;8.60;84.30
40622;DHT22;26324;52.040;11.528;2022-10-13T06:35:43;8.80;84.20
40622;DHT22;26324;52.040;11.528;2022-10-13T06:38:08;8.80;84.00
40622;DHT22;26324;52.040;11.528;2022-10-13T06:40:34;8.80;84.30
40622;DHT22;26324;52.040;11.528;2022-10-13T06:42:59;8.80;84.50
40622;DHT22;26324;52.040;11.528;2022-10-13T06:45:25;9.00;84.60
40622;DHT22;26324;52.040;11.528;2022-10-13T06:47:52;9.10;84.40
40622;DHT22;26324;52.040;11.528;2022-10-13T06:50:18;9.10;84.30
40622;DHT22;26324;52.040;11.528;2022-10-13T06:52:44;9.10;84.30
40622;DHT22;26324;52.040;11.528;2022-10-13T06:55:09;9.20;84.40
40622;DHT22;26324;52.040;11.528;2022-10-13T06:57:35;9.30;84.00
40622;DHT22;26324;52.040;11.528;2022-10-13T07:00:01;9.40;84.10
40622;DHT22;26324;52.040;11.528;2022-10-13T07:02:26;9.40;84.10
40622;DHT22;26324;52.040;11.528;2022-10-13T07:04:52;9.50;83.80
40622;DHT22;26324;52.040;11.528;2022-10-13T07:07:17;9.50;84.00
40622;DHT22;26324;52.040;11.528;2022-10-13T07:09:43;9.60;83.80
40622;DHT22;26324;52.040;11.528;2022-10-13T07:12:08;9.80;83.60
40622;DHT22;26324;52.040;11.528;2022-10-13T07:14:34;9.90;83.60
40622;DHT22;26324;52.040;11.528;2022-10-13T07:16:59;10.00;83.50
40622;DHT22;26324;52.040;11.528;2022-10-13T07:19:25;10.10;83.40
40622;DHT22;26324;52.040;11.528;2022-10-13T07:21:51;10.20;83.20
40622;DHT22;26324;52.040;11.528;2022-10-13T07:24:16;10.20;82.80
40622;DHT22;26324;52.040;11.528;2022-10-13T07:26:42;10.20;83.30
40622;DHT22;26324;52.040;11.528;2022-10-13T07:29:08;10.30;83.30
40622;DHT22;26324;52.040;11.528;2022-10-13T07:31:33;10.50;83.10
40622;DHT22;26324;52.040;11.528;2022-10-13T07:33:59;10.70;82.90
40622;DHT22;26324;52.040;11.528;2022-10-13T07:36:25;10.80;82.70
40622;DHT22;26324;52.040;11.528;2022-10-13T07:38:51;10.80;82.90
40622;DHT22;26324;52.040;11.528;2022-10-13T07:41:17;10.90;83.00
40622;DHT22;26324;52.040;11.528;2022-10-13T07:43:43;11.00;83.00
40622;DHT22;26324;52.040;11.528;2022-10-13T07:46:11;11.10;83.20
40622;DHT22;26324;52.040;11.528;2022-10-13T07:48:37;11.30;82.70
40622;DHT22;26324;52.040;11.528;2022-10-13T07:51:07;11.30;82.80
40622;DHT22;26324;52.040;11.528;2022-10-13T07:53:34;11.50;82.50
40622;DHT22;26324;52.040;11.528;2022-10-13T07:56:04;11.60;82.70
40622;DHT22;26324;52.040;11.528;2022-10-13T07:58:30;11.80;82.20
40622;DHT22;26324;52.040;11.528;2022-10-13T08:00:57;11.90;82.20
40622;DHT22;26324;52.040;11.528;2022-10-13T08:03:24;12.00;81.90
40622;DHT22;26324;52.040;11.528;2022-10-13T08:05:49;12.10;82.00
40622;DHT22;26324;52.040;11.528;2022-10-13T08:08:15;12.20;82.00
40622;DHT22;26324;52.040;11.528;2022-10-13T08:10:40;12.30;81.80
40622;DHT22;26324;52.040;11.528;2022-10-13T08:13:06;12.40;81.80
40622;DHT22;26324;52.040;11.528;2022-10-13T08:15:31;12.50;81.30
40622;DHT22;26324;52.040;11.528;2022-10-13T08:17:57;12.60;81.30
40622;DHT22;26324;52.040;11.528;2022-10-13T08:20:22;12.60;81.50
40622;DHT22;26324;52.040;11.528;2022-10-13T08:22:48;12.60;81.60
40622;DHT22;26324;52.040;11.528;2022-10-13T08:25:13;12.80;81.60
40622;DHT22;26324;52.040;11.528;2022-10-13T08:27:39;13.00;81.00
40622;DHT22;26324;52.040;11.528;2022-10-13T08:30:05;12.90;80.70
40622;DHT22;26324;52.040;11.528;2022-10-13T08:32:30;13.00;80.70
40622;DHT22;26324;52.040;11.528;2022-10-13T08:34:56;13.00;80.60
40622;DHT22;26324;52.040;11.528;2022-10-13T08:37:21;13.00;80.60
40622;DHT22;26324;52.040;11.528;2022-10-13T08:39:47;13.10;80.30
40622;DHT22;26324;52.040;11.528;2022-10-13T08:42:17;13.10;80.00
40622;DHT22;26324;52.040;11.528;2022-10-13T08:45:03;13.20;79.80
40622;DHT22;26324;52.040;11.528;2022-10-13T08:50:00;13.30;79.30
40622;DHT22;26324;52.040;11.528;2022-10-13T08:52:41;13.40;79.00
40622;DHT22;26324;52.040;11.528;2022-10-13T08:55:44;13.50;79.00
40622;DHT22;26324;52.040;11.528;2022-10-13T08:58:10;13.60;79.20
40622;DHT22;26324;52.040;11.528;2022-10-13T09:00:36;13.80;78.90
40622;DHT22;26324;52.040;11.528;2022-10-13T09:03:18;14.00;78.50
40622;DHT22;26324;52.040;11.528;2022-10-13T09:06:10;14.10;77.10
40622;DHT22;26324;52.040;11.528;2022-10-13T09:08:44;14.20;76.70
40622;DHT22;26324;52.040;11.528;2022-10-13T09:11:13;14.20;76.20
40622;DHT22;26324;52.040;11.528;2022-10-13T09:13:38;14.40;76.00
40622;DHT22;26324;52.040;11.528;2022-10-13T09:16:04;14.30;75.70
40622;DHT22;26324;52.040;11.528;2022-10-13T09:18:31;14.30;75.80
40622;DHT22;26324;52.040;11.528;2022-10-13T09:21:17;14.30;75.30
40622;DHT22;26324;52.040;11.528;2022-10-13T09:23:43;14.20;75.70
40622;DHT22;26324;52.040;11.528;2022-10-13T09:26:22;14.20;75.60
40622;DHT22;26324;52.040;11.528;2022-10-13T09:28:49;14.20;75.50
40622;DHT22;26324;52.040;11.528;2022-10-13T09:33:40;14.10;75.30
40622;DHT22;26324;52.040;11.528;2022-10-13T09:36:12;14.10;75.90
40622;DHT22;26324;52.040;11.528;2022-10-13T09:38:40;14.10;75.70
40622;DHT22;26324;52.040;11.528;2022-10-13T09:48:39;14.60;73.90
40622;DHT22;26324;52.040;11.528;2022-10-13T09:51:42;14.60;73.20
40622;DHT22;26324;52.040;11.528;2022-10-13T09:54:44;14.80;73.00
40622;DHT22;26324;52.040;11.528;2022-10-13T09:57:30;14.80;73.10
40622;DHT22;26324;52.040;11.528;2022-10-13T10:00:16;15.10;72.70
40622;DHT22;26324;52.040;11.528;2022-10-13T10:10:41;16.00;69.30
40622;DHT22;26324;52.040;11.528;2022-10-13T10:13:10;16.50;68.80
40622;DHT22;26324;52.040;11.528;2022-10-13T10:15:49;16.80;67.70
40622;DHT22;26324;52.040;11.528;2022-10-13T10:19:04;17.10;65.70
40622;DHT22;26324;52.040;11.528;2022-10-13T10:23:47;17.10;64.10
40622;DHT22;26324;52.040;11.528;2022-10-13T10:26:21;17.20;64.10
40622;DHT22;26324;52.040;11.528;2022-10-13T10:28:55;17.30;63.20
40622;DHT22;26324;52.040;11.528;2022-10-13T10:45:39;18.30;60.00
40622;DHT22;26324;52.040;11.528;2022-10-13T10:48:21;18.30;59.80
40622;DHT22;26324;52.040;11.528;2022-10-13T10:50:51;18.30;59.60
40622;DHT22;26324;52.040;11.528;2022-10-13T10:56:37;18.10;58.00
40622;DHT22;26324;52.040;11.528;2022-10-13T11:04:46;17.90;59.10
40622;DHT22;26324;52.040;11.528;2022-10-13T11:15:11;17.50;59.10
40622;DHT22;26324;52.040;11.528;2022-10-13T11:17:39;17.30;60.20
40622;DHT22;26324;52.040;11.528;2022-10-13T11:26:18;17.00;60.70
40622;DHT22;26324;52.040;11.528;2022-10-13T11:28:45;17.30;60.60
40622;DHT22;26324;52.040;11.528;2022-10-13T11:44:57;20.10;51.30
40622;DHT22;26324;52.040;11.528;2022-10-13T11:53:16;20.60;50.70
40622;DHT22;26324;52.040;11.528;2022-10-13T11:55:54;20.70;48.30
40622;DHT22;26324;52.040;11.528;2022-10-13T11:58:22;20.80;49.40
40622;DHT22;26324;52.040;11.528;2022-10-13T12:03:28;20.70;49.70
40622;DHT22;26324;52.040;11.528;2022-10-13T12:06:03;20.80;50.70
40622;DHT22;26324;52.040;11.528;2022-10-13T12:08:34;21.00;48.90
40622;DHT22;26324;52.040;11.528;2022-10-13T12:11:00;21.50;47.30
40622;DHT22;26324;52.040;11.528;2022-10-13T12:13:32;21.50;47.20
40622;DHT22;26324;52.040;11.528;2022-10-13T12:16:07;21.20;46.00
40622;DHT22;26324;52.040;11.528;2022-10-13T12:18:35;21.10;48.40
40622;DHT22;26324;52.040;11.528;2022-10-13T12:21:14;21.60;46.90
40622;DHT22;26324;52.040;11.528;2022-10-13T12:23:42;22.10;46.10
40622;DHT22;26324;52.040;11.528;2022-10-13T12:26:20;22.20;46.60
40622;DHT22;26324;52.040;11.528;2022-10-13T12:29:00;22.60;46.10
40622;DHT22;26324;52.040;11.528;2022-10-13T12:31:46;23.30;44.80
40622;DHT22;26324;52.040;11.528;2022-10-13T12:36:55;24.00;39.90
40622;DHT22;26324;52.040;11.528;2022-10-13T12:39:23;23.80;39.70
40622;DHT22;26324;52.040;11.528;2022-10-13T12:41:50;23.40;41.70
40622;DHT22;26324;52.040;11.528;2022-10-13T12:44:21;23.10;41.10
40622;DHT22;26324;52.040;11.528;2022-10-13T12:46:53;23.00;44.10
40622;DHT22;26324;52.040;11.528;2022-10-13T12:49:27;23.30;41.70
40622;DHT22;26324;52.040;11.528;2022-10-13T12:51:57;23.50;41.10
40622;DHT22;26324;52.040;11.528;2022-10-13T12:54:38;23.00;41.30
40622;DHT22;26324;52.040;11.528;2022-10-13T12:57:30;23.00;43.60
40622;DHT22;26324;52.040;11.528;2022-10-13T13:00:25;23.70;40.40
40622;DHT22;26324;52.040;11.528;2022-10-13T13:02:55;25.00;39.20
40622;DHT22;26324;52.040;11.528;2022-10-13T13:05:40;26.00;35.90
40622;DHT22;26324;52.040;11.528;2022-10-13T13:11:02;25.50;36.50
40622;DHT22;26324;52.040;11.528;2022-10-13T13:13:29;25.90;37.10
40622;DHT22;26324;52.040;11.528;2022-10-13T13:16:20;26.20;36.10
40622;DHT22;26324;52.040;11.528;2022-10-13T13:18:48;26.50;35.50
40622;DHT22;26324;52.040;11.528;2022-10-13T13:21:16;26.20;35.10
40622;DHT22;26324;52.040;11.528;2022-10-13T13:23:43;25.30;36.40
40622;DHT22;26324;52.040;11.528;2022-10-13T13:26:13;25.10;37.20
40622;DHT22;26324;52.040;11.528;2022-10-13T13:28:44;25.80;36.20
40622;DHT22;26324;52.040;11.528;2022-10-13T13:31:14;27.00;33.50
40622;DHT22;26324;52.040;11.528;2022-10-13T13:33:40;27.50;32.20
40622;DHT22;26324;52.040;11.528;2022-10-13T13:36:14;27.70;32.50
40622;DHT22;26324;52.040;11.528;2022-10-13T13:38:41;27.20;32.50
40622;DHT22;26324;52.040;11.528;2022-10-13T13:41:09;26.30;34.30
40622;DHT22;26324;52.040;11.528;2022-10-13T13:43:34;25.80;35.50
40622;DHT22;26324;52.040;11.528;2022-10-13T13:46:00;26.70;33.90
40622;DHT22;26324;52.040;11.528;2022-10-13T13:48:25;27.30;33.70
40622;DHT22;26324;52.040;11.528;2022-10-13T13:50:51;27.30;32.40
40622;DHT22;26324;52.040;11.528;2022-10-13T13:53:17;26.70;32.80
40622;DHT22;26324;52.040;11.528;2022-10-13T13:55:43;25.90;33.20
40622;DHT22;26324;52.040;11.528;2022-10-13T13:58:08;24.60;35.50
40622;DHT22;26324;52.040;11.528;2022-10-13T14:00:34;23.70;37.20
40622;DHT22;26324;52.040;11.528;2022-10-13T14:02:59;22.80;38.00
40622;DHT22;26324;52.040;11.528;2022-10-13T14:05:25;22.30;38.60
40622;DHT22;26324;52.040;11.528;2022-10-13T14:07:55;21.90;39.80
40622;DHT22;26324;52.040;11.528;2022-10-13T14:10:22;21.60;40.90
40622;DHT22;26324;52.040;11.528;2022-10-13T14:12:48;21.40;41.80
40622;DHT22;26324;52.040;11.528;2022-10-13T14:15:14;21.10;42.10
40622;DHT22;26324;52.040;11.528;2022-10-13T14:17:40;20.70;43.30
40622;DHT22;26324;52.040;11.528;2022-10-13T14:20:06;20.60;43.30
40622;DHT22;26324;52.040;11.528;2022-10-13T14:22:32;20.60;43.50
40622;DHT22;26324;52.040;11.528;2022-10-13T14:24:57;20.60;43.60
40622;DHT22;26324;52.040;11.528;2022-10-13T14:27:23;20.80;44.40
40622;DHT22;26324;52.040;11.528;2022-10-13T14:29:48;21.30;45.70
40622;DHT22;26324;52.040;11.528;2022-10-13T14:32:14;21.60;42.80
40622;DHT22;26324;52.040;11.528;2022-10-13T14:34:39;21.80;42.40
40622;DHT22;26324;52.040;11.528;2022-10-13T14:37:05;21.70;41.50
40622;DHT22;26324;52.040;11.528;2022-10-13T14:39:30;21.60;41.40
40622;DHT22;26324;52.040;11.528;2022-10-13T14:41:56;21.40;43.40
40622;DHT22;26324;52.040;11.528;2022-10-13T14:44:21;21.20;44.20
40622;DHT22;26324;52.040;11.528;2022-10-13T14:46:47;21.10;44.30
40622;DHT22;26324;52.040;11.528;2022-10-13T14:49:12;20.90;45.80
40622;DHT22;26324;52.040;11.528;2022-10-13T14:51:38;20.70;44.90
40622;DHT22;26324;52.040;11.528;2022-10-13T14:54:04;20.70;46.20
40622;DHT22;26324;52.040;11.528;2022-10-13T14:56:31;20.80;48.20
40622;DHT22;26324;52.040;11.528;2022-10-13T14:58:59;20.80;46.40
40622;DHT22;26324;52.040;11.528;2022-10-13T15:01:25;20.70;46.80
40622;DHT22;26324;52.040;11.528;2022-10-13T15:03:51;20.40;47.10
40622;DHT22;26324;52.040;11.528;2022-10-13T15:06:19;20.20;47.70
40622;DHT22;26324;52.040;11.528;2022-10-13T15:08:45;20.10;49.00
40622;DHT22;26324;52.040;11.528;2022-10-13T15:11:11;20.10;48.90
40622;DHT22;26324;52.040;11.528;2022-10-13T15:13:37;20.00;49.30
40622;DHT22;26324;52.040;11.528;2022-10-13T15:16:03;20.00;50.10
40622;DHT22;26324;52.040;11.528;2022-10-13T15:18:30;19.80;49.50
40622;DHT22;26324;52.040;11.528;2022-10-13T15:20:56;19.70;50.30
40622;DHT22;26324;52.040;11.528;2022-10-13T15:23:22;19.60;50.60
40622;DHT22;26324;52.040;11.528;2022-10-13T15:25:54;19.50;50.90
40622;DHT22;26324;52.040;11.528;2022-10-13T15:28:25;19.20;50.80
40622;DHT22;26324;52.040;11.528;2022-10-13T15:30:51;19.00;51.70
40622;DHT22;26324;52.040;11.528;2022-10-13T15:33:18;18.60;53.20
40622;DHT22;26324;52.040;11.528;2022-10-13T15:35:47;18.20;54.60
40622;DHT22;26324;52.040;11.528;2022-10-13T15:38:13;18.00;54.60
40622;DHT22;26324;52.040;11.528;2022-10-13T15:40:40;18.00;54.40
40622;DHT22;26324;52.040;11.528;2022-10-13T15:43:07;17.90;54.50
40622;DHT22;26324;52.040;11.528;2022-10-13T15:45:33;17.80;55.10
40622;DHT22;26324;52.040;11.528;2022-10-13T15:47:59;17.80;55.70
40622;DHT22;26324;52.040;11.528;2022-10-13T15:50:24;17.70;56.30
40622;DHT22;26324;52.040;11.528;2022-10-13T15:52:50;17.50;56.00
40622;DHT22;26324;52.040;11.528;2022-10-13T15:55:16;17.40;57.00
40622;DHT22;26324;52.040;11.528;2022-10-13T15:57:42;17.20;57.40
40622;DHT22;26324;52.040;11.528;2022-10-13T16:00:10;17.00;57.90
40622;DHT22;26324;52.040;11.528;2022-10-13T16:02:36;16.90;57.90
40622;DHT22;26324;52.040;11.528;2022-10-13T16:05:02;16.90;58.10
40622;DHT22;26324;52.040;11.528;2022-10-13T16:07:33;16.80;58.60
40622;DHT22;26324;52.040;11.528;2022-10-13T16:09:59;16.70;58.80
40622;DHT22;26324;52.040;11.528;2022-10-13T16:12:26;16.60;58.90
40622;DHT22;26324;52.040;11.528;2022-10-13T16:14:52;16.50;59.20
40622;DHT22;26324;52.040;11.528;2022-10-13T16:17:17;16.50;58.90
40622;DHT22;26324;52.040;11.528;2022-10-13T16:19:43;16.40;59.70
40622;DHT22;26324;52.040;11.528;2022-10-13T16:22:08;16.40;59.50
40622;DHT22;26324;52.040;11.528;2022-10-13T16:24:34;16.30;59.40
40622;DHT22;26324;52.040;11.528;2022-10-13T16:27:00;16.30;59.50
40622;DHT22;26324;52.040;11.528;2022-10-13T16:29:26;16.30;59.40
40622;DHT22;26324;52.040;11.528;2022-10-13T16:31:52;16.30;58.90
40622;DHT22;26324;52.040;11.528;2022-10-13T16:36:10;16.20;58.70
40622;DHT22;26324;52.040;11.528;2022-10-13T16:38:37;16.30;58.60
40622;DHT22;26324;52.040;11.528;2022-10-13T16:41:06;16.30;58.90
40622;DHT22;26324;52.040;11.528;2022-10-13T16:43:33;16.30;58.90
40622;DHT22;26324;52.040;11.528;2022-10-13T16:46:00;16.30;58.80
40622;DHT22;26324;52.040;11.528;2022-10-13T16:48:28;16.20;58.70
40622;DHT22;26324;52.040;11.528;2022-10-13T16:50:54;16.20;58.90
40622;DHT22;26324;52.040;11.528;2022-10-13T16:53:20;16.20;59.00
40622;DHT22;26324;52.040;11.528;2022-10-13T16:55:45;16.20;58.90
40622;DHT22;26324;52.040;11.528;2022-10-13T16:58:11;16.10;59.30
40622;DHT22;26324;52.040;11.528;2022-10-13T17:00:37;16.10;59.00
40622;DHT22;26324;52.040;11.528;2022-10-13T17:03:04;16.00;59.50
40622;DHT22;26324;52.040;11.528;2022-10-13T17:05:29;16.00;59.90
40622;DHT22;26324;52.040;11.528;2022-10-13T17:07:55;15.80;60.70
40622;DHT22;26324;52.040;11.528;2022-10-13T17:10:20;15.80;60.90
40622;DHT22;26324;52.040;11.528;2022-10-13T17:12:46;15.60;61.60
40622;DHT22;26324;52.040;11.528;2022-10-13T17:17:39;15.50;62.20
40622;DHT22;26324;52.040;11.528;2022-10-13T17:20:05;15.40;62.40